Time;durP1;ratioP1;P1;durP2;ratioP2;P2;SDS_P1;SDS_P2;PMS_P1;PMS_P2;Temp;Humidity;BMP_temperature;BMP_pressure;BME280_temperature;BME280_humidity;BME280_pressure;Samples;Min_cycle;Max_cycle;Signal;HPM_P1;HPM_P2
2022/01/27 00:05:21;;;;;;;28.08;14.13;;;-0.30;99.90;;;;;;5291328;28;20043;-70
2022/01/27 00:08:17;;;;;;;;;;;-0.30;99.90;;;;;;5291688;28;20081;-71
2022/01/27 00:13:18;;;;;;;22.05;12.25;;;-0.60;99.90;;;;;;5291094;27;20024;-70
2022/01/27 00:15:58;;;;;;;23.02;12.68;;;-0.40;99.90;;;;;;5291070;28;20026;-70
2022/01/27 00:18:30;;;;;;;25.42;11.20;;;-0.60;99.90;;;;;;5291077;28;20023;-70
2022/01/27 00:21:01;;;;;;;22.30;11.52;;;-0.50;99.90;;;;;;5290852;28;20092;-70
2022/01/27 00:23:31;;;;;;;30.77;13.73;;;-0.30;99.90;;;;;;5290786;27;20027;-71
2022/01/27 00:26:03;;;;;;;19.77;11.15;;;-0.30;99.90;;;;;;5290203;28;20418;-71
2022/01/27 00:28:34;;;;;;;29.45;14.45;;;-0.30;99.90;;;;;;5289533;28;20027;-71
2022/01/27 00:31:05;;;;;;;25.30;13.85;;;-0.40;99.90;;;;;;5290232;28;20043;-70
2022/01/27 00:33:36;;;;;;;24.05;12.75;;;-0.60;99.90;;;;;;5290735;28;20061;-70
2022/01/27 00:36:07;;;;;;;27.48;13.70;;;-0.40;99.90;;;;;;5290632;28;20103;-70
2022/01/27 00:38:38;;;;;;;22.90;12.55;;;-0.60;99.90;;;;;;5290657;28;20023;-70
2022/01/27 00:41:10;;;;;;;22.65;13.18;;;-0.50;99.90;;;;;;5290541;28;20016;-70
2022/01/27 00:43:43;;;;;;;24.73;13.13;;;-0.60;99.90;;;;;;5290542;28;20027;-70
2022/01/27 00:46:16;;;;;;;21.23;12.40;;;-0.30;99.90;;;;;;5290458;28;20020;-71
2022/01/27 00:48:48;;;;;;;24.58;13.43;;;-0.40;99.90;;;;;;5290460;28;20020;-69
2022/01/27 00:51:22;;;;;;;29.15;13.80;;;-0.50;99.90;;;;;;5290270;28;20027;-70
2022/01/27 00:54:10;;;;;;;24.38;12.82;;;-0.60;99.90;;;;;;5290440;28;20050;-70
2022/01/27 00:57:08;;;;;;;24.55;12.65;;;-0.60;99.90;;;;;;5290414;28;20094;-70
2022/01/27 00:59:51;;;;;;;23.48;12.95;;;-0.50;99.90;;;;;;5289993;28;20069;-72
2022/01/27 01:05:26;;;;;;;28.30;15.10;;;-0.20;99.90;;;;;;5290224;28;20523;-70
2022/01/27 01:08:06;;;;;;;26.63;14.93;;;-0.50;99.90;;;;;;5290153;28;20066;-70
2022/01/27 01:15:53;;;;;;;34.65;18.10;;;-0.60;99.90;;;;;;5290074;28;20023;-71
2022/01/27 01:32:52;;;;;;;31.08;16.98;;;-0.30;99.90;;;;;;5245417;28;20415;-71
2022/01/27 01:35:29;;;;;;;37.75;17.67;;;-0.50;99.90;;;;;;5245715;28;20037;-71
2022/01/27 01:38:00;;;;;;;35.05;18.27;;;-0.50;99.90;;;;;;5247618;28;20153;-70
2022/01/27 01:40:31;;;;;;;32.30;17.05;;;-0.80;99.90;;;;;;5249863;28;20133;-70
2022/01/27 01:43:02;;;;;;;34.85;17.75;;;-0.80;99.90;;;;;;5249813;28;20053;-70
2022/01/27 01:45:34;;;;;;;34.25;18.52;;;-0.60;99.90;;;;;;5249776;28;20075;-71
2022/01/27 01:48:05;;;;;;;35.67;18.70;;;-0.70;99.90;;;;;;5249739;28;20021;-71
2022/01/27 01:50:37;;;;;;;36.97;17.88;;;-0.90;99.90;;;;;;5249699;28;20063;-71
2022/01/27 01:53:07;;;;;;;37.88;18.77;;;-0.80;99.90;;;;;;5287295;28;20410;-71
2022/01/27 01:55:38;;;;;;;27.98;15.63;;;-1.10;99.90;;;;;;5293839;28;20027;-71
2022/01/27 01:58:09;;;;;;;29.77;15.45;;;-0.40;99.90;;;;;;5293932;28;20048;-71
2022/01/27 02:00:40;;;;;;;32.92;16.83;;;-0.50;99.90;;;;;;5293540;27;20028;-70
2022/01/27 02:03:11;;;;;;;31.80;16.75;;;-0.80;99.90;;;;;;5293613;28;20098;-71
2022/01/27 02:05:48;;;;;;;37.35;18.23;;;-1.00;99.90;;;;;;5293726;28;20083;-71
2022/01/27 02:19:26;;;;;;;28.70;16.27;;;-0.70;99.90;;;;;;5293745;28;20039;-70
2022/01/27 02:22:03;;;;;;;29.00;15.13;;;-0.80;99.90;;;;;;5293210;28;20114;-71
2022/01/27 02:24:35;;;;;;;33.50;16.58;;;-0.90;99.90;;;;;;5293115;28;20043;-71
2022/01/27 02:27:06;;;;;;;31.92;16.75;;;-0.80;99.90;;;;;;5293266;28;20394;-71
2022/01/27 02:29:38;;;;;;;34.22;16.90;;;-0.80;99.90;;;;;;5293089;28;20032;-70
2022/01/27 02:32:09;;;;;;;28.67;15.85;;;-0.80;99.90;;;;;;5292610;27;20134;-71
2022/01/27 02:34:41;;;;;;;35.70;17.25;;;-0.40;99.90;;;;;;5293158;28;20431;-70
2022/01/27 02:37:13;;;;;;;33.03;16.50;;;-0.60;99.90;;;;;;5292968;28;20036;-71
2022/01/27 02:39:44;;;;;;;30.30;16.20;;;-0.30;99.90;;;;;;5292973;28;20442;-71
2022/01/27 02:42:35;;;;;;;29.33;15.85;;;-0.30;99.90;;;;;;5292948;28;20463;-71
2022/01/27 02:45:12;;;;;;;;;;;-0.40;99.90;;;;;;5293406;28;20028;-71
2022/01/27 02:47:43;;;;;;;34.47;18.95;;;-0.30;99.90;;;;;;5292895;27;19910;-71
2022/01/27 02:50:13;;;;;;;35.35;19.20;;;-0.50;99.90;;;;;;5292016;28;20024;-71
2022/01/27 02:52:45;;;;;;;34.30;18.85;;;-0.30;99.90;;;;;;5292688;28;20035;-71
2022/01/27 02:55:16;;;;;;;30.83;17.50;;;-0.50;99.90;;;;;;5292658;28;20055;-70
2022/01/27 02:57:47;;;;;;;32.15;17.23;;;-0.40;99.90;;;;;;5292750;28;20063;-71
2022/01/27 03:00:18;;;;;;;35.90;18.00;;;-0.50;99.90;;;;;;5292317;28;20490;-71
2022/01/27 03:02:49;;;;;;;32.13;16.98;;;-0.40;99.90;;;;;;5292458;28;20462;-71
2022/01/27 03:05:19;;;;;;;37.53;18.38;;;-0.50;99.90;;;;;;5292425;28;20028;-71
2022/01/27 03:07:50;;;;;;;34.83;17.75;;;-0.40;99.90;;;;;;5292523;28;20020;-71
2022/01/27 03:10:26;;;;;;;35.50;17.70;;;-0.40;99.90;;;;;;5292346;28;20057;-71
2022/01/27 03:13:00;;;;;;;31.85;16.77;;;-0.40;99.90;;;;;;5291079;28;20043;-71
2022/01/27 03:15:30;;;;;;;34.88;17.55;;;-0.50;99.90;;;;;;5292224;27;20024;-71
2022/01/27 03:18:01;;;;;;;31.58;17.38;;;-0.60;99.90;;;;;;5292231;28;20033;-71
2022/01/27 03:20:33;;;;;;;31.25;17.52;;;-0.40;99.90;;;;;;5291049;28;20016;-70
2022/01/27 03:23:05;;;;;;;32.95;16.63;;;-0.40;99.90;;;;;;5292056;28;20039;-70
2022/01/27 03:25:36;;;;;;;32.72;16.55;;;-0.60;99.90;;;;;;5292146;28;20069;-71
2022/01/27 03:28:10;;;;;;;30.83;16.48;;;-0.30;99.90;;;;;;5292049;28;20463;-71
2022/01/27 03:30:41;;;;;;;30.35;16.88;;;-0.60;99.90;;;;;;5291558;27;20032;-71
2022/01/27 03:33:12;;;;;;;33.97;17.20;;;-0.50;99.90;;;;;;5291914;28;20059;-71
2022/01/27 03:35:43;;;;;;;37.33;17.58;;;-0.60;99.90;;;;;;5291943;28;20422;-71
2022/01/27 03:38:13;;;;;;;29.73;16.95;;;-0.50;99.90;;;;;;5291822;27;20536;-71
2022/01/27 03:40:44;;;;;;;32.33;17.50;;;-0.60;99.90;;;;;;5291788;27;20032;-72
2022/01/27 03:43:15;;;;;;;33.10;17.33;;;-0.60;99.90;;;;;;5291652;28;20016;-72
2022/01/27 03:45:46;;;;;;;33.78;17.67;;;-0.50;99.90;;;;;;5291703;28;20020;-71
2022/01/27 03:48:17;;;;;;;30.20;15.23;;;-0.60;99.90;;;;;;5291663;28;20073;-70
2022/01/27 03:50:47;;;;;;;33.25;16.50;;;-0.60;99.90;;;;;;5291590;28;20031;-71
2022/01/27 03:53:18;;;;;;;35.15;17.02;;;-0.60;99.90;;;;;;5291539;28;20039;-71
2022/01/27 03:55:49;;;;;;;33.13;17.55;;;-0.80;99.90;;;;;;5291437;28;20077;-71
2022/01/27 03:58:20;;;;;;;32.05;17.23;;;-0.80;99.90;;;;;;5291454;28;20031;-71
2022/01/27 04:00:52;;;;;;;27.40;15.82;;;-0.70;99.90;;;;;;5290123;28;20493;-71
2022/01/27 04:03:23;;;;;;;35.70;16.77;;;-0.70;99.90;;;;;;5291263;28;20427;-71
2022/01/27 04:05:56;;;;;;;37.65;17.15;;;-0.50;99.90;;;;;;5291290;28;20020;-70
2022/01/27 04:08:26;;;;;;;33.83;17.60;;;-0.50;99.90;;;;;;5291268;28;20085;-72
2022/01/27 04:10:57;;;;;;;30.90;16.52;;;-0.60;99.90;;;;;;5291042;28;20024;-71
2022/01/27 04:13:28;;;;;;;31.38;16.75;;;-0.60;99.90;;;;;;5291023;28;20077;-71
2022/01/27 04:15:59;;;;;;;33.97;17.00;;;-0.60;99.90;;;;;;5291102;28;20163;-70
2022/01/27 04:18:30;;;;;;;33.28;17.63;;;-0.60;99.90;;;;;;5291043;27;20481;-71
2022/01/27 04:21:01;;;;;;;31.80;17.15;;;-0.70;99.90;;;;;;5290933;27;20024;-71
2022/01/27 04:23:32;;;;;;;31.42;17.63;;;-0.60;99.90;;;;;;5290780;28;20371;-71
2022/01/27 04:26:04;;;;;;;32.42;17.05;;;-0.80;99.90;;;;;;5290942;28;20062;-71
2022/01/27 04:28:37;;;;;;;31.55;16.88;;;-0.60;99.90;;;;;;5290800;27;20042;-71
2022/01/27 04:31:10;;;;;;;31.25;16.60;;;-0.50;99.90;;;;;;5290308;28;20044;-71
2022/01/27 04:33:41;;;;;;;34.42;17.60;;;-0.80;99.90;;;;;;5290851;28;20034;-71
2022/01/27 04:36:21;;;;;;;34.33;16.95;;;-0.50;99.90;;;;;;5290610;28;20027;-71
2022/01/27 04:39:11;;;;;;;38.35;16.95;;;-0.50;99.90;;;;;;5290710;28;20027;-71
2022/01/27 04:41:59;;;;;;;34.85;18.15;;;-0.50;99.90;;;;;;5290569;28;20027;-71
2022/01/27 04:44:39;;;;;;;33.30;18.80;;;-0.50;99.90;;;;;;5290486;28;20023;-71
2022/01/27 04:47:12;;;;;;;38.38;19.13;;;-0.40;99.90;;;;;;5290552;28;20019;-71
2022/01/27 04:49:44;;;;;;;36.15;18.85;;;-0.30;99.90;;;;;;5290428;28;20055;-71
2022/01/27 04:52:15;;;;;;;31.52;18.23;;;-0.40;99.90;;;;;;5290276;28;20448;-71
2022/01/27 04:54:59;;;;;;;33.28;16.95;;;-0.40;99.90;;;;;;5290289;28;20012;-70
2022/01/27 04:57:31;;;;;;;33.88;17.73;;;-0.50;99.90;;;;;;5290343;28;20392;-71
2022/01/27 05:00:04;;;;;;;33.53;17.27;;;-0.30;99.90;;;;;;5271889;28;20051;-71
2022/01/27 05:05:06;;;;;;;37.67;20.20;;;-0.50;99.90;;;;;;5290197;28;20019;-71
2022/01/27 05:07:38;;;;;;;33.67;17.63;;;-0.30;99.90;;;;;;5290091;28;20096;-71
2022/01/27 05:10:13;;;;;;;33.80;17.00;;;-0.40;99.90;;;;;;5290072;28;20019;-71
2022/01/27 05:12:48;;;;;;;34.95;18.35;;;-0.40;99.90;;;;;;5289683;27;20027;-71
2022/01/27 05:15:19;;;;;;;36.00;19.65;;;-0.40;99.90;;;;;;5290084;28;20030;-71
2022/01/27 05:17:51;;;;;;;35.95;19.13;;;-0.30;99.90;;;;;;5289988;28;20027;-71
2022/01/27 05:20:22;;;;;;;35.90;18.95;;;-0.30;99.90;;;;;;5290034;28;20015;-71
2022/01/27 05:22:53;;;;;;;39.40;20.77;;;-0.50;99.90;;;;;;5290376;28;20034;-71
2022/01/27 05:25:24;;;;;;;35.05;18.75;;;-0.30;99.90;;;;;;5290007;28;20023;-71
2022/01/27 05:27:55;;;;;;;37.55;19.67;;;-0.40;99.90;;;;;;5289871;28;20471;-71
2022/01/27 05:30:26;;;;;;;36.78;20.58;;;-0.40;99.90;;;;;;5289478;28;20027;-71
2022/01/27 05:32:58;;;;;;;38.78;20.70;;;-0.30;99.90;;;;;;5289647;28;20048;-71
2022/01/27 05:35:29;;;;;;;41.33;20.55;;;-0.60;99.90;;;;;;5289871;28;20030;-71
2022/01/27 05:38:01;;;;;;;39.53;20.35;;;-0.40;99.90;;;;;;5289864;28;20012;-71
2022/01/27 05:40:32;;;;;;;42.95;20.48;;;-0.30;99.90;;;;;;5289776;28;20023;-71
2022/01/27 05:43:03;;;;;;;39.08;20.27;;;-0.40;99.90;;;;;;5289605;28;20030;-73
2022/01/27 05:45:34;;;;;;;38.50;19.75;;;-0.50;99.90;;;;;;5289785;28;20036;-71
2022/01/27 05:48:05;;;;;;;40.47;20.55;;;-0.50;99.90;;;;;;5289613;28;20339;-71
2022/01/27 05:50:36;;;;;;;38.08;20.92;;;-0.70;99.90;;;;;;5289642;28;20078;-70
2022/01/27 05:53:07;;;;;;;41.92;21.38;;;-0.60;99.90;;;;;;5289591;28;20039;-71
2022/01/27 05:55:38;;;;;;;37.70;20.33;;;-0.70;99.90;;;;;;5289691;28;20016;-71
2022/01/27 05:58:09;;;;;;;39.20;20.13;;;-0.60;99.90;;;;;;5289527;28;20422;-71
2022/01/27 06:00:39;;;;;;;39.83;19.75;;;-0.50;99.90;;;;;;5289348;28;20019;-71
2022/01/27 06:03:10;;;;;;;40.05;19.70;;;-0.40;99.90;;;;;;5289504;28;20028;-71
2022/01/27 06:05:41;;;;;;;43.25;20.13;;;-0.40;99.90;;;;;;5289687;28;20493;-71
2022/01/27 06:08:12;;;;;;;41.17;20.90;;;-0.40;99.90;;;;;;5289546;28;20019;-71
2022/01/27 06:10:43;;;;;;;38.28;20.55;;;-0.30;99.90;;;;;;5289470;28;20054;-71
2022/01/27 06:13:13;;;;;;;35.83;19.13;;;-0.20;99.90;;;;;;5289419;28;20044;-71
2022/01/27 06:15:44;;;;;;;37.17;18.92;;;-0.30;99.90;;;;;;5288175;28;20031;-71
2022/01/27 06:18:15;;;;;;;41.45;19.77;;;-0.40;99.90;;;;;;5289461;28;20080;-71
2022/01/27 06:20:46;;;;;;;45.25;21.48;;;-0.30;99.90;;;;;;5289330;28;20050;-72
2022/01/27 06:23:17;;;;;;;47.67;22.02;;;-0.20;99.90;;;;;;5289234;28;20096;-71
2022/01/27 06:25:48;;;;;;;40.03;20.83;;;-0.20;99.90;;;;;;5292397;28;20356;-71
2022/01/27 06:28:19;;;;;;;51.95;25.48;;;-0.30;99.90;;;;;;5293369;28;20027;-71
2022/01/27 06:30:50;;;;;;;48.03;22.85;;;-0.30;99.90;;;;;;5292738;28;20147;-71
2022/01/27 06:33:22;;;;;;;44.78;25.77;;;-0.20;99.90;;;;;;5293072;27;20130;-71
2022/01/27 06:35:53;;;;;;;45.60;24.15;;;-0.10;99.90;;;;;;5293095;28;20031;-71
2022/01/27 06:38:24;;;;;;;43.80;23.05;;;0.00;99.90;;;;;;5293115;28;20027;-71
2022/01/27 06:40:55;;;;;;;40.00;20.13;;;-0.20;99.90;;;;;;5292916;28;20012;-79
2022/01/27 06:43:26;;;;;;;35.20;19.10;;;-0.10;99.90;;;;;;5292898;28;20023;-71
2022/01/27 06:45:56;;;;;;;38.25;19.15;;;-0.10;99.90;;;;;;5292852;28;20028;-79
2022/01/27 06:48:28;;;;;;;38.85;20.70;;;-0.20;99.90;;;;;;5292940;28;20409;-72
2022/01/27 06:51:01;;;;;;;42.10;22.08;;;-0.10;99.90;;;;;;5292661;28;20495;-71
2022/01/27 06:53:32;;;;;;;38.30;20.30;;;0.00;99.90;;;;;;5292795;28;20039;-71
2022/01/27 06:56:03;;;;;;;36.40;19.17;;;0.10;99.90;;;;;;5292682;28;20020;-71
2022/01/27 06:58:36;;;;;;;41.55;21.08;;;0.10;99.90;;;;;;5292642;28;20016;-71
2022/01/27 07:01:06;;;;;;;42.70;20.40;;;0.20;99.90;;;;;;5292343;28;20112;-71
2022/01/27 07:03:37;;;;;;;44.63;22.60;;;0.30;99.90;;;;;;5292496;28;20102;-71
2022/01/27 07:06:08;;;;;;;41.42;22.58;;;0.30;99.90;;;;;;5292498;28;20036;-71
2022/01/27 07:08:39;;;;;;;39.78;21.23;;;0.30;99.90;;;;;;5292461;28;20363;-78
2022/01/27 07:11:10;;;;;;;39.00;20.23;;;0.40;99.90;;;;;;5292318;28;20032;-71
2022/01/27 07:13:42;;;;;;;40.22;21.20;;;0.30;99.90;;;;;;5292381;28;20042;-71
2022/01/27 07:16:13;;;;;;;37.85;20.50;;;0.30;99.90;;;;;;5292294;28;20027;-71
2022/01/27 07:18:43;;;;;;;39.33;20.90;;;0.40;99.90;;;;;;5292262;28;20147;-71
2022/01/27 07:21:14;;;;;;;46.47;21.85;;;0.40;99.90;;;;;;5292116;28;20016;-71
2022/01/27 07:23:46;;;;;;;37.05;20.23;;;0.40;99.90;;;;;;5292359;28;20474;-71
2022/01/27 07:26:24;;;;;;;42.53;21.10;;;0.40;99.90;;;;;;5290949;28;20028;-70
2022/01/27 07:28:56;;;;;;;39.42;20.52;;;0.40;99.90;;;;;;5292156;28;20038;-71
2022/01/27 07:31:26;;;;;;;37.60;18.90;;;0.50;99.90;;;;;;5291555;28;20054;-70
2022/01/27 07:33:58;;;;;;;37.55;20.05;;;0.60;99.90;;;;;;5292003;28;20470;-70
2022/01/27 07:36:31;;;;;;;38.35;21.65;;;0.60;99.90;;;;;;5291786;28;20028;-70
2022/01/27 07:39:02;;;;;;;39.33;21.30;;;0.60;99.90;;;;;;5291817;28;20058;-70
2022/01/27 07:41:33;;;;;;;37.10;20.35;;;0.70;99.90;;;;;;5291894;28;20024;-70
2022/01/27 07:44:04;;;;;;;36.42;20.45;;;0.80;99.90;;;;;;5291635;28;20027;-71
2022/01/27 07:46:35;;;;;;;37.33;20.42;;;1.00;99.90;;;;;;5291688;28;20091;-70
2022/01/27 07:49:06;;;;;;;38.45;19.55;;;1.00;99.90;;;;;;5291524;28;20026;-70
2022/01/27 07:51:36;;;;;;;40.10;20.45;;;1.20;99.90;;;;;;5291486;28;20027;-69
2022/01/27 08:27:20;;;;;;;41.03;22.70;;;1.70;99.90;;;;;;5308487;27;20406;-75
2022/01/27 08:29:57;;;;;;;36.95;20.60;;;2.30;99.90;;;;;;5308223;27;20081;-74
2022/01/27 08:33:15;;;;;;;37.03;20.50;;;2.40;99.90;;;;;;5308278;27;20027;-75
2022/01/27 08:35:22;;;;;;;36.88;20.70;;;2.50;99.90;;;;;;5299553;28;20456;-76
2022/01/27 08:37:52;;;;;;;32.53;18.98;;;2.60;99.90;;;;;;5307965;27;20377;-77
2022/01/27 08:40:25;;;;;;;38.75;20.38;;;2.60;99.90;;;;;;5308036;27;20028;-75
2022/01/27 08:42:57;;;;;;;37.30;20.40;;;2.70;99.90;;;;;;5308105;27;20473;-77
2022/01/27 08:45:29;;;;;;;36.05;21.10;;;2.70;99.90;;;;;;5308038;27;20031;-75
2022/01/27 08:48:01;;;;;;;37.42;21.00;;;2.80;99.90;;;;;;5308006;27;20344;-77
2022/01/27 08:50:32;;;;;;;37.47;20.85;;;2.70;99.90;;;;;;5307843;27;20028;-77
2022/01/27 08:53:03;;;;;;;38.08;21.02;;;2.80;99.90;;;;;;5307804;27;20076;-77
2022/01/27 08:55:34;;;;;;;40.72;22.58;;;2.90;99.90;;;;;;5307456;27;20486;-77
2022/01/27 08:58:05;;;;;;;34.70;19.13;;;3.10;99.90;;;;;;5307650;27;20023;-77
2022/01/27 09:00:36;;;;;;;39.72;21.15;;;3.10;99.90;;;;;;5306419;28;20027;-75
2022/01/27 09:03:06;;;;;;;41.03;20.15;;;3.20;99.90;;;;;;5307725;27;20024;-74
2022/01/27 09:05:37;;;;;;;35.40;19.40;;;3.30;99.90;;;;;;5307689;27;20076;-77
2022/01/27 09:08:08;;;;;;;37.90;20.13;;;3.20;99.90;;;;;;5307542;27;20062;-78
2022/01/27 09:10:41;;;;;;;33.03;18.58;;;3.20;99.90;;;;;;5306260;28;20103;-75
2022/01/27 09:13:14;;;;;;;36.20;20.63;;;3.20;99.90;;;;;;5307413;27;20015;-77
2022/01/27 09:15:49;;;;;;;36.95;19.50;;;3.20;99.90;;;;;;5307326;27;20118;-77
2022/01/27 09:18:19;;;;;;;33.42;19.52;;;3.30;99.90;;;;;;5307276;27;20041;-76
2022/01/27 09:20:50;;;;;;;34.63;21.50;;;3.30;99.90;;;;;;5307208;27;20035;-77
2022/01/27 09:23:22;;;;;;;35.80;19.05;;;3.40;99.90;;;;;;5307233;27;20383;-78
2022/01/27 09:25:56;;;;;;;31.80;18.13;;;3.50;99.90;;;;;;5306508;27;20482;-77
2022/01/27 09:28:27;;;;;;;30.67;18.65;;;3.60;99.90;;;;;;5292692;28;20016;-75
2022/01/27 09:30:59;;;;;;;37.13;18.63;;;3.70;99.90;;;;;;5291691;28;20523;-76
2022/01/27 09:33:30;;;;;;;34.90;18.95;;;3.70;99.90;;;;;;5292881;28;20095;-78
2022/01/27 09:36:00;;;;;;;32.13;18.08;;;3.80;99.90;;;;;;5292842;28;20168;-78
2022/01/27 09:38:31;;;;;;;28.63;16.45;;;3.90;99.90;;;;;;5292807;27;20432;-76
2022/01/27 09:41:02;;;;;;;31.45;17.92;;;3.90;99.90;;;;;;5292860;28;20069;-77
2022/01/27 09:43:35;;;;;;;30.85;17.48;;;3.80;99.90;;;;;;5292843;28;20081;-77
2022/01/27 09:46:07;;;;;;;31.77;16.65;;;4.00;99.90;;;;;;5292773;28;20028;-77
2022/01/27 09:48:43;;;;;;;36.28;17.73;;;3.70;99.90;;;;;;5291505;28;20028;-78
2022/01/27 09:53:54;;;;;;;28.42;15.35;;;4.00;99.90;;;;;;5292765;28;20524;-78
2022/01/27 09:56:25;;;;;;;29.73;16.23;;;4.10;99.90;;;;;;5292150;28;20047;-77
2022/01/27 09:58:56;;;;;;;27.00;14.93;;;4.30;99.90;;;;;;5292626;28;20019;-77
2022/01/27 10:01:27;;;;;;;31.17;16.05;;;4.40;99.90;;;;;;5292389;28;20348;-79
2022/01/27 10:04:09;;;;;;;31.00;15.82;;;4.50;99.90;;;;;;5292400;28;20024;-77
2022/01/27 10:06:45;;;;;;;27.00;15.10;;;4.40;99.90;;;;;;5292307;28;20387;-79
2022/01/27 10:09:29;;;;;;;27.08;13.75;;;4.80;99.90;;;;;;5292382;27;20051;-76
2022/01/27 10:12:05;;;;;;;24.55;13.98;;;4.70;99.90;;;;;;5292266;28;20012;-77
2022/01/27 10:14:38;;;;;;;22.95;12.20;;;5.10;99.90;;;;;;5292272;28;20484;-79
2022/01/27 10:17:13;;;;;;;22.63;12.63;;;5.30;99.90;;;;;;5292057;28;20028;-79
2022/01/27 10:19:53;;;;;;;25.45;12.40;;;5.00;99.90;;;;;;5292121;28;20370;-76
2022/01/27 10:22:24;;;;;;;18.58;10.63;;;5.10;99.90;;;;;;5292211;28;20124;-78
2022/01/27 10:25:08;;;;;;;18.30;10.68;;;5.30;99.90;;;;;;5291624;28;20482;-76
2022/01/27 10:32:59;;;;;;;23.48;12.10;;;5.60;99.90;;;;;;5291930;28;20020;-76
2022/01/27 10:35:30;;;;;;;17.40;11.23;;;5.90;99.90;;;;;;5291766;28;20038;-78
2022/01/27 10:38:09;;;;;;;21.92;12.25;;;6.10;99.90;;;;;;5290972;28;20587;-80
2022/01/27 10:40:48;;;;;;;21.83;12.57;;;6.20;99.90;;;;;;5291706;28;20032;-79
2022/01/27 10:43:22;;;;;;;18.00;10.23;;;6.10;99.90;;;;;;5291719;28;20024;-76
2022/01/27 10:46:16;;;;;;;18.10;10.75;;;6.10;99.90;;;;;;5291412;28;20039;-76
2022/01/27 10:48:54;;;;;;;15.90;9.02;;;6.10;99.90;;;;;;5291574;28;20398;-76
2022/01/27 10:51:29;;;;;;;12.23;7.45;;;5.90;99.90;;;;;;5291680;28;20493;-78
2022/01/27 10:54:07;;;;;;;12.80;7.10;;;5.80;99.90;;;;;;5291459;27;20042;-76
2022/01/27 10:56:39;;;;;;;13.38;8.00;;;5.50;99.90;;;;;;5291364;28;20580;-77
2022/01/27 10:59:16;;;;;;;11.45;7.13;;;5.80;99.90;;;;;;5291295;28;20049;-79
2022/01/27 11:01:49;;;;;;;12.10;7.47;;;5.90;99.90;;;;;;5291284;28;20016;-77
2022/01/27 11:04:20;;;;;;;14.23;7.68;;;5.80;99.90;;;;;;5291289;28;20030;-77
2022/01/27 11:07:00;;;;;;;13.77;6.78;;;5.90;99.90;;;;;;5291049;28;20036;-79
2022/01/27 11:09:38;;;;;;;15.43;7.45;;;5.80;99.90;;;;;;5291232;28;20528;-78
2022/01/27 11:12:13;;;;;;;11.55;6.90;;;5.90;99.90;;;;;;5291134;28;20031;-80
2022/01/27 11:14:49;;;;;;;12.43;7.05;;;5.80;99.90;;;;;;5290913;28;20054;-79
2022/01/27 11:17:21;;;;;;;11.18;6.80;;;5.80;99.90;;;;;;5290767;28;20019;-78
2022/01/27 11:22:41;;;;;;;13.05;7.57;;;5.80;99.90;;;;;;5290848;28;20535;-76
2022/01/27 11:27:50;;;;;;;29.10;20.48;;;5.90;99.90;;;;;;5290730;28;20121;-78
2022/01/27 11:30:46;;;;;;;22.17;13.77;;;6.00;99.90;;;;;;5290753;28;20023;-76
2022/01/27 11:33:18;;;;;;;55.13;38.00;;;5.80;99.90;;;;;;5290650;28;20486;-75
2022/01/27 11:36:05;;;;;;;14.00;8.85;;;6.00;99.90;;;;;;5290617;28;20498;-80
2022/01/27 11:38:38;;;;;;;12.80;6.45;;;5.60;99.90;;;;;;5290511;28;20023;-76
2022/01/27 11:41:39;;;;;;;12.52;7.57;;;5.80;99.90;;;;;;5290633;28;20063;-82
2022/01/27 11:44:32;;;;;;;16.40;7.40;;;5.90;99.90;;;;;;5288026;28;20031;-76
2022/01/27 11:47:09;;;;;;;11.85;7.18;;;5.70;99.90;;;;;;5290371;28;20034;-75
2022/01/27 11:49:56;;;;;;;11.02;6.70;;;5.60;99.90;;;;;;5290213;28;20035;-78
2022/01/27 11:52:29;;;;;;;11.43;6.78;;;5.70;99.90;;;;;;5290281;28;20102;-75
2022/01/27 11:55:26;;;;;;;12.18;6.78;;;5.60;99.90;;;;;;5290194;28;20131;-82
2022/01/27 11:57:59;;;;;;;11.18;6.20;;;5.70;99.90;;;;;;5286953;28;20036;-76
2022/01/27 12:00:30;;;;;;;15.00;6.93;;;5.80;99.90;;;;;;5290232;28;20024;-75
2022/01/27 12:03:01;;;;;;;18.13;9.98;;;5.90;99.90;;;;;;5290216;28;20374;-76
2022/01/27 12:05:40;;;;;;;13.65;7.55;;;5.80;99.90;;;;;;5290031;28;20023;-76
2022/01/27 12:08:14;;;;;;;12.35;7.15;;;6.00;99.90;;;;;;5289042;28;20027;-78
2022/01/27 12:10:59;;;;;;;12.25;6.80;;;6.00;99.90;;;;;;5290038;28;20103;-77
2022/01/27 12:13:37;;;;;;;16.30;10.77;;;5.80;99.90;;;;;;5290058;28;20445;-81
2022/01/27 12:19:08;;;;;;;10.98;6.45;;;5.90;99.90;;;;;;5290052;28;20030;-75
2022/01/27 12:21:55;;;;;;;11.85;6.78;;;5.90;99.90;;;;;;5290024;28;20038;-75
2022/01/27 12:24:30;;;;;;;22.67;15.45;;;6.00;99.90;;;;;;5289997;28;20019;-79
2022/01/27 12:27:06;;;;;;;10.30;5.90;;;5.80;98.50;;;;;;5289737;28;20394;-75
2022/01/27 12:29:39;;;;;;;15.35;9.45;;;6.00;95.10;;;;;;5289971;28;20531;-78
2022/01/27 12:32:20;;;;;;;9.43;5.25;;;5.90;94.40;;;;;;5289917;28;20024;-75
2022/01/27 12:34:55;;;;;;;9.73;5.63;;;5.90;94.80;;;;;;5288643;28;20028;-79
2022/01/27 12:37:46;;;;;;;9.82;5.90;;;5.90;95.30;;;;;;5289652;28;20043;-81
2022/01/27 12:40:33;;;;;;;23.63;13.20;;;6.10;97.30;;;;;;5289819;28;20487;-77
2022/01/27 12:43:12;;;;;;;11.68;6.00;;;6.20;91.00;;;;;;5288512;28;20027;-81
2022/01/27 12:45:44;;;;;;;10.63;5.72;;;5.90;97.60;;;;;;5289688;28;20035;-75
2022/01/27 12:48:22;;;;;;;134.55;54.70;;;6.00;98.70;;;;;;5289736;28;20106;-75
2022/01/27 12:50:58;;;;;;;16.02;8.45;;;6.10;94.20;;;;;;5289833;28;20058;-75
2022/01/27 12:53:30;;;;;;;11.68;6.43;;;6.10;99.90;;;;;;5288557;28;20417;-82
2022/01/27 12:56:09;;;;;;;8.48;5.32;;;5.90;97.50;;;;;;5289322;28;20035;-75
2022/01/27 12:58:40;;;;;;;10.10;5.50;;;6.00;96.80;;;;;;5289643;28;20107;-82
2022/01/27 13:01:11;;;;;;;8.27;4.53;;;5.80;97.50;;;;;;5289542;28;20054;-74
2022/01/27 13:03:59;;;;;;;10.23;5.32;;;6.00;95.60;;;;;;5293543;28;20024;-75
2022/01/27 13:06:30;;;;;;;9.60;5.93;;;5.70;99.50;;;;;;5293403;28;20380;-81
2022/01/27 13:09:14;;;;;;;10.57;6.00;;;5.80;97.90;;;;;;5293613;28;20015;-77
2022/01/27 13:11:46;;;;;;;11.65;7.00;;;5.60;99.90;;;;;;5293455;27;20028;-81
2022/01/27 13:14:17;;;;;;;12.98;7.35;;;5.70;99.90;;;;;;5293432;28;20012;-75
2022/01/27 13:16:58;;;;;;;16.13;7.05;;;5.60;99.90;;;;;;5291862;28;20051;-80
2022/01/27 13:19:42;;;;;;;12.10;6.55;;;5.60;99.90;;;;;;5293256;28;20030;-74
2022/01/27 13:22:15;;;;;;;10.55;6.35;;;5.50;99.90;;;;;;5293423;28;20032;-80
2022/01/27 13:24:49;;;;;;;10.98;6.55;;;5.60;99.90;;;;;;5291447;28;20028;-81
2022/01/27 13:27:22;;;;;;;12.15;7.22;;;5.50;99.90;;;;;;5293095;28;20034;-81
2022/01/27 13:29:58;;;;;;;12.15;7.68;;;5.50;99.90;;;;;;5291761;28;20474;-77
2022/01/27 13:32:29;;;;;;;13.20;7.03;;;5.40;99.90;;;;;;5293104;28;20123;-77
2022/01/27 13:35:00;;;;;;;11.55;7.05;;;5.20;99.90;;;;;;5293020;28;20031;-82
2022/01/27 13:37:34;;;;;;;13.30;8.10;;;5.20;99.90;;;;;;5291489;28;20371;-74
2022/01/27 13:42:58;;;;;;;16.23;7.23;;;5.30;99.90;;;;;;5292929;28;20085;-78
2022/01/27 13:45:34;;;;;;;11.98;6.88;;;5.30;99.90;;;;;;5292587;28;20038;-81
2022/01/27 13:48:22;;;;;;;12.40;7.22;;;5.30;99.90;;;;;;5292742;28;20027;-81
2022/01/27 13:50:55;;;;;;;13.43;6.93;;;5.40;99.90;;;;;;5292592;28;20024;-75
2022/01/27 13:53:27;;;;;;;11.50;6.85;;;5.70;99.90;;;;;;5292572;28;20474;-78
2022/01/27 13:56:01;;;;;;;12.85;7.35;;;5.70;99.90;;;;;;5292415;28;20079;-74
2022/01/27 13:58:32;;;;;;;15.43;7.47;;;5.50;99.90;;;;;;5292384;28;20479;-80
2022/01/27 14:01:13;;;;;;;14.93;7.70;;;5.50;99.90;;;;;;5292433;28;20023;-80
2022/01/27 14:03:46;;;;;;;14.07;7.78;;;5.50;99.90;;;;;;5292412;28;20026;-75
2022/01/27 14:06:17;;;;;;;15.63;8.88;;;5.40;99.90;;;;;;5290987;28;20436;-75
2022/01/27 14:08:49;;;;;;;21.08;10.63;;;5.20;99.90;;;;;;5292201;28;20027;-77
2022/01/27 14:11:36;;;;;;;19.88;11.60;;;5.10;99.90;;;;;;5292344;28;20016;-75
2022/01/27 14:14:07;;;;;;;20.02;10.52;;;5.00;99.90;;;;;;5292255;28;20026;-81
2022/01/27 14:16:41;;;;;;;15.80;10.43;;;4.90;99.90;;;;;;5292007;28;20059;-81
2022/01/27 14:19:13;;;;;;;23.20;13.68;;;4.90;99.90;;;;;;5290765;28;20028;-78
2022/01/27 14:21:47;;;;;;;19.60;10.65;;;4.70;99.90;;;;;;5292067;28;20359;-81
2022/01/27 14:24:22;;;;;;;22.35;10.30;;;4.80;99.90;;;;;;5291905;28;20482;-81
2022/01/27 14:27:03;;;;;;;20.63;12.35;;;4.70;99.90;;;;;;5291628;28;20154;-77
2022/01/27 14:29:34;;;;;;;20.25;11.00;;;4.60;99.90;;;;;;5291926;28;20015;-79
2022/01/27 14:32:05;;;;;;;21.52;12.00;;;4.50;99.90;;;;;;5290464;28;20026;-79
2022/01/27 14:34:38;;;;;;;20.38;12.45;;;4.50;99.90;;;;;;5291845;28;20051;-75
2022/01/27 14:37:09;;;;;;;21.58;11.60;;;4.50;99.90;;;;;;5291584;28;20024;-76
2022/01/27 14:39:39;;;;;;;22.20;12.30;;;4.40;99.90;;;;;;5291683;28;20454;-80
2022/01/27 14:42:11;;;;;;;23.27;11.63;;;4.30;99.90;;;;;;5291563;28;20024;-74
2022/01/27 14:44:42;;;;;;;21.65;13.05;;;4.30;99.90;;;;;;5291512;28;20024;-80